createdAt,value
2023-05-10T00:02:27.339Z,14.04
2023-05-10T00:04:54.663Z,13.90
2023-05-10T00:07:22.118Z,13.79
2023-05-10T00:09:49.496Z,13.90
2023-05-10T00:12:16.822Z,13.80
2023-05-10T00:14:44.155Z,13.76
2023-05-10T00:17:12.979Z,13.61
2023-05-10T00:19:40.308Z,13.53
2023-05-10T00:22:07.590Z,13.47
2023-05-10T00:24:34.875Z,13.51
2023-05-10T00:27:02.195Z,13.62
2023-05-10T00:29:29.652Z,13.43
2023-05-10T00:31:56.974Z,13.36
2023-05-10T00:34:25.728Z,13.50
2023-05-10T00:36:53.078Z,13.46
2023-05-10T00:39:20.533Z,13.58
2023-05-10T00:41:47.826Z,13.50
2023-05-10T00:44:15.343Z,13.66
2023-05-10T00:46:43.051Z,13.77
2023-05-10T00:49:10.653Z,13.91
2023-05-10T00:51:39.346Z,14.00
2023-05-10T00:54:06.704Z,13.99
2023-05-10T00:56:34.695Z,14.19
2023-05-10T00:59:02.242Z,14.24
2023-05-10T01:01:30.466Z,14.30
2023-05-10T01:03:58.316Z,14.27
2023-05-10T01:06:25.664Z,14.35
2023-05-10T01:08:54.636Z,14.47
2023-05-10T01:11:21.953Z,14.30
2023-05-10T01:13:56.358Z,14.45
2023-05-10T01:16:24.837Z,14.23
2023-05-10T01:18:53.182Z,14.30
2023-05-10T01:21:28.712Z,14.43
2023-05-10T01:24:18.881Z,14.28
2023-05-10T01:27:46.388Z,14.23
2023-05-10T01:30:48.361Z,14.30
2023-05-10T01:33:23.378Z,14.10
2023-05-10T01:35:57.013Z,14.31
2023-05-10T01:38:33.920Z,14.21
2023-05-10T01:41:12.365Z,14.01
2023-05-10T01:43:48.045Z,14.20
2023-05-10T01:46:21.791Z,14.28
2023-05-10T01:48:55.937Z,14.20
2023-05-10T01:51:26.924Z,14.17
2023-05-10T01:54:02.571Z,14.02
2023-05-10T01:56:33.281Z,13.97
2023-05-10T01:59:04.463Z,13.87
2023-05-10T02:01:32.890Z,13.85
2023-05-10T02:04:03.873Z,13.78
2023-05-10T02:06:32.977Z,13.81
2023-05-10T02:09:02.399Z,13.78
2023-05-10T02:11:30.652Z,13.58
2023-05-10T02:13:59.688Z,13.66
2023-05-10T02:16:28.573Z,13.47
2023-05-10T02:18:58.183Z,13.55
2023-05-10T02:21:28.891Z,13.63
2023-05-10T02:23:57.551Z,13.64
2023-05-10T02:26:26.337Z,13.75
2023-05-10T02:28:55.453Z,13.77
2023-05-10T02:31:23.903Z,13.72
2023-05-10T02:33:52.077Z,13.70
2023-05-10T02:36:21.935Z,13.68
2023-05-10T02:38:52.731Z,13.47
2023-05-10T02:41:21.611Z,13.51
2023-05-10T02:43:51.623Z,13.52
2023-05-10T02:46:19.391Z,13.44
2023-05-10T02:48:46.833Z,13.48
2023-05-10T02:51:17.445Z,13.33
2023-05-10T02:53:46.941Z,13.27
2023-05-10T02:56:20.996Z,13.22
2023-05-10T02:58:48.280Z,13.22
2023-05-10T03:01:15.661Z,13.03
2023-05-10T03:03:43.088Z,13.04
2023-05-10T03:06:10.523Z,12.96
2023-05-10T03:08:38.042Z,12.82
2023-05-10T03:11:21.473Z,12.85
2023-05-10T03:14:05.260Z,12.82
2023-05-10T03:16:38.326Z,12.87
2023-05-10T03:19:17.057Z,12.87
2023-05-10T03:21:50.696Z,12.81
2023-05-10T03:24:21.789Z,12.57
2023-05-10T03:26:52.847Z,12.61
2023-05-10T03:29:22.847Z,12.67
2023-05-10T03:31:50.300Z,12.64
2023-05-10T03:34:17.729Z,12.64
2023-05-10T03:36:45.163Z,12.69
2023-05-10T03:39:12.467Z,12.67
2023-05-10T03:41:39.831Z,12.75
2023-05-10T03:44:08.514Z,12.70
2023-05-10T03:46:36.067Z,12.79
2023-05-10T03:49:03.455Z,12.86
2023-05-10T03:51:30.838Z,12.81
2023-05-10T03:53:58.249Z,12.74
2023-05-10T03:56:25.869Z,12.77
2023-05-10T03:58:53.170Z,12.81
2023-05-10T04:01:22.110Z,12.91
2023-05-10T04:03:49.483Z,12.98
2023-05-10T04:06:17.087Z,12.95
2023-05-10T04:08:44.517Z,12.67
2023-05-10T04:11:12.956Z,12.92
2023-05-10T04:13:40.305Z,12.88
2023-05-10T04:16:07.703Z,13.08
2023-05-10T04:18:36.389Z,13.15
2023-05-10T04:21:04.054Z,13.24
2023-05-10T04:23:31.500Z,13.23
2023-05-10T04:26:01.816Z,13.31
2023-05-10T04:28:29.183Z,13.27
2023-05-10T04:31:02.344Z,13.18
2023-05-10T04:33:29.696Z,13.18
2023-05-10T04:35:58.574Z,13.20
2023-05-10T04:38:25.986Z,13.02
2023-05-10T04:40:53.349Z,13.10
2023-05-10T04:43:20.767Z,13.17
2023-05-10T04:45:48.092Z,13.23
2023-05-10T04:48:15.435Z,13.23
2023-05-10T04:50:44.022Z,13.31
2023-05-10T04:53:14.601Z,13.42
2023-05-10T04:55:43.654Z,13.18
2023-05-10T04:58:11.139Z,13.23
2023-05-10T05:00:38.462Z,13.27
2023-05-10T05:03:05.930Z,13.33
2023-05-10T05:05:33.331Z,13.18
2023-05-10T05:08:00.724Z,13.26
2023-05-10T05:10:29.398Z,13.20
2023-05-10T05:12:56.825Z,13.39
2023-05-10T05:15:24.216Z,13.43
2023-05-10T05:17:51.616Z,13.33
2023-05-10T05:20:19.272Z,13.35
2023-05-10T05:22:46.964Z,13.58
2023-05-10T05:25:14.334Z,13.63
2023-05-10T05:27:43.192Z,13.53
2023-05-10T05:30:11.380Z,13.36
2023-05-10T05:32:39.439Z,13.44
2023-05-10T05:35:07.341Z,13.39
2023-05-10T05:37:34.968Z,13.35
2023-05-10T05:40:02.410Z,13.44
2023-05-10T05:42:29.704Z,13.68
2023-05-10T05:44:58.506Z,13.64
2023-05-10T05:47:25.960Z,13.74
2023-05-10T05:49:53.305Z,13.85
2023-05-10T05:52:20.631Z,14.01
2023-05-10T05:54:47.974Z,14.23
2023-05-10T05:57:15.292Z,14.21
2023-05-10T05:59:42.784Z,14.37
2023-05-10T06:02:11.983Z,14.50
2023-05-10T06:04:41.537Z,14.52
2023-05-10T06:07:10.214Z,14.52
2023-05-10T06:09:37.497Z,14.73
2023-05-10T06:12:05.242Z,14.80
2023-05-10T06:14:32.545Z,15.27
2023-05-10T06:16:59.981Z,16.01
2023-05-10T06:19:28.981Z,16.77
2023-05-10T06:21:56.238Z,16.90
2023-05-10T06:24:23.690Z,16.61
2023-05-10T06:26:51.189Z,17.53
2023-05-10T06:29:18.609Z,17.11
2023-05-10T06:31:46.151Z,18.26
2023-05-10T06:34:13.482Z,19.03
2023-05-10T06:36:42.173Z,19.58
2023-05-10T06:39:09.489Z,19.44
2023-05-10T06:41:36.791Z,19.13
2023-05-10T06:44:04.381Z,18.45
2023-05-10T06:46:31.842Z,17.63
2023-05-10T06:48:59.232Z,17.38
2023-05-10T06:51:26.718Z,17.73
2023-05-10T06:53:55.396Z,18.64
2023-05-10T06:56:22.864Z,18.94
2023-05-10T06:58:50.214Z,18.42
2023-05-10T07:01:17.822Z,18.32
2023-05-10T07:03:45.227Z,17.99
2023-05-10T07:06:21.753Z,17.52
2023-05-10T07:08:59.763Z,17.22
2023-05-10T07:11:27.249Z,17.29
2023-05-10T07:13:54.693Z,17.41
2023-05-10T07:16:22.038Z,17.57
2023-05-10T07:18:49.380Z,17.67
2023-05-10T07:21:16.960Z,17.99
2023-05-10T07:23:45.204Z,18.59
2023-05-10T07:26:14.000Z,18.70
2023-05-10T07:28:41.266Z,18.81
2023-05-10T07:31:17.702Z,18.94
2023-05-10T07:33:45.199Z,20.11
2023-05-10T07:36:12.546Z,20.88
2023-05-10T07:38:41.020Z,21.50
2023-05-10T07:41:08.620Z,21.41
2023-05-10T07:43:37.490Z,21.24
2023-05-10T07:46:05.814Z,20.73
2023-05-10T07:48:33.119Z,20.53
2023-05-10T07:51:00.509Z,20.71
2023-05-10T07:53:27.909Z,20.80
2023-05-10T07:55:58.504Z,20.82
2023-05-10T07:58:26.286Z,21.13
2023-05-10T08:00:55.310Z,21.16
2023-05-10T08:03:22.681Z,21.71
2023-05-10T08:05:50.065Z,22.09
2023-05-10T08:08:17.493Z,21.35
2023-05-10T08:10:45.226Z,21.34
2023-05-10T08:13:12.631Z,20.96
2023-05-10T08:15:40.026Z,20.24
2023-05-10T08:18:08.931Z,20.04
2023-05-10T08:20:36.476Z,19.44
2023-05-10T08:23:03.895Z,19.35
2023-05-10T08:25:32.064Z,19.19
2023-05-10T08:27:59.405Z,19.25
2023-05-10T08:30:26.724Z,19.19
2023-05-10T08:32:54.103Z,18.86
2023-05-10T08:35:22.846Z,18.42
2023-05-10T08:37:50.167Z,18.29
2023-05-10T08:40:20.041Z,18.30
2023-05-10T08:42:59.632Z,18.57
2023-05-10T08:45:32.908Z,18.75
2023-05-10T08:48:02.361Z,18.94
2023-05-10T08:50:32.238Z,18.75
2023-05-10T08:53:02.613Z,18.79
2023-05-10T08:55:30.065Z,18.60
2023-05-10T08:57:57.550Z,18.90
2023-05-10T09:00:25.069Z,18.95
2023-05-10T09:02:52.856Z,19.24
2023-05-10T09:05:20.363Z,19.31
2023-05-10T09:07:49.347Z,19.05
2023-05-10T09:10:17.695Z,19.32
2023-05-10T09:12:49.348Z,19.27
2023-05-10T09:15:20.243Z,19.51
2023-05-10T09:17:50.194Z,19.70
2023-05-10T09:20:17.880Z,19.20
2023-05-10T09:22:45.626Z,18.84
2023-05-10T09:25:16.005Z,18.74
2023-05-10T09:27:46.354Z,18.20
2023-05-10T09:30:17.152Z,17.84
2023-05-10T09:32:47.007Z,17.65
2023-05-10T09:35:16.779Z,17.56
2023-05-10T09:37:46.122Z,17.51
2023-05-10T09:40:16.396Z,17.74
2023-05-10T09:42:53.618Z,18.11
2023-05-10T09:45:21.707Z,18.79
2023-05-10T09:47:49.244Z,19.10
2023-05-10T09:50:16.680Z,19.28
2023-05-10T09:52:49.216Z,19.05
2023-05-10T09:55:19.201Z,18.31
2023-05-10T09:57:46.981Z,18.57
2023-05-10T10:00:18.928Z,18.52
2023-05-10T10:02:48.399Z,18.61
2023-05-10T10:05:16.522Z,18.77
2023-05-10T10:07:44.065Z,18.74
2023-05-10T10:10:11.545Z,18.79
2023-05-10T10:12:41.052Z,18.20
2023-05-10T10:15:09.735Z,18.96
2023-05-10T10:17:38.161Z,19.52
2023-05-10T10:20:06.573Z,19.45
2023-05-10T10:22:34.010Z,19.64
2023-05-10T10:25:01.526Z,19.99
2023-05-10T10:27:42.589Z,20.38
2023-05-10T10:30:24.781Z,20.55
2023-05-10T10:33:27.260Z,20.63
2023-05-10T10:35:58.975Z,20.82
2023-05-10T10:38:26.480Z,20.30
2023-05-10T10:41:04.077Z,20.30
2023-05-10T10:43:31.472Z,20.04
2023-05-10T10:46:16.027Z,20.21
2023-05-10T10:48:48.624Z,20.08
2023-05-10T10:51:16.107Z,19.72
2023-05-10T10:53:44.516Z,19.52
2023-05-10T10:56:13.625Z,19.18
2023-05-10T10:58:41.829Z,18.43
2023-05-10T11:01:15.471Z,18.01
2023-05-10T11:04:16.182Z,17.22
2023-05-10T11:06:43.602Z,17.06
2023-05-10T11:09:12.158Z,17.56
2023-05-10T11:11:53.490Z,17.79
2023-05-10T11:14:22.425Z,17.69
2023-05-10T11:16:51.299Z,18.20
2023-05-10T11:19:19.158Z,17.61
2023-05-10T11:21:47.992Z,18.09
2023-05-10T11:24:16.868Z,17.67
2023-05-10T11:26:44.440Z,17.53
2023-05-10T11:29:13.880Z,17.52
2023-05-10T11:31:44.898Z,16.98
2023-05-10T11:34:24.836Z,15.86
2023-05-10T11:36:53.347Z,15.20
2023-05-10T11:39:20.826Z,15.36
2023-05-10T11:41:49.957Z,15.17
2023-05-10T11:44:17.523Z,15.70
2023-05-10T11:46:45.078Z,16.53
2023-05-10T11:49:14.008Z,17.42
2023-05-10T11:51:41.317Z,18.15
2023-05-10T11:54:09.926Z,18.78
2023-05-10T11:56:37.583Z,19.58
2023-05-10T11:59:05.126Z,19.87
2023-05-10T12:01:32.677Z,19.59
2023-05-10T12:04:00.479Z,19.23
2023-05-10T12:06:31.292Z,18.89
2023-05-10T12:08:59.500Z,18.85
2023-05-10T12:11:27.841Z,18.91
2023-05-10T12:13:56.117Z,19.13
2023-05-10T12:16:25.154Z,19.35
2023-05-10T12:18:54.646Z,19.33
2023-05-10T12:21:22.397Z,19.18
2023-05-10T12:23:52.813Z,18.48
2023-05-10T12:26:23.158Z,18.11
2023-05-10T12:28:50.445Z,17.71
2023-05-10T12:31:17.827Z,17.59
2023-05-10T12:33:46.228Z,18.13
2023-05-10T12:36:15.706Z,18.38
2023-05-10T12:38:44.241Z,18.58
2023-05-10T12:41:14.345Z,18.73
2023-05-10T12:43:42.146Z,18.86
2023-05-10T12:46:10.728Z,19.20
2023-05-10T12:48:39.338Z,19.41
2023-05-10T12:51:07.597Z,19.65
2023-05-10T12:53:35.025Z,19.33
2023-05-10T12:56:02.393Z,19.58
2023-05-10T12:58:35.950Z,19.91
2023-05-10T13:01:04.164Z,20.00
2023-05-10T13:03:31.589Z,19.58
2023-05-10T13:05:58.871Z,19.16
2023-05-10T13:08:26.197Z,18.97
2023-05-10T13:10:53.608Z,18.99
2023-05-10T13:13:20.959Z,18.84
2023-05-10T13:15:49.610Z,18.83
2023-05-10T13:18:16.945Z,19.30
2023-05-10T13:20:44.332Z,18.97
2023-05-10T13:23:11.598Z,19.23
2023-05-10T13:25:38.941Z,19.72
2023-05-10T13:28:06.220Z,19.01
2023-05-10T13:30:33.593Z,19.28
2023-05-10T13:33:02.371Z,19.89
2023-05-10T13:35:29.886Z,19.83
2023-05-10T13:37:57.366Z,19.22
2023-05-10T13:40:24.613Z,19.30
2023-05-10T13:42:51.867Z,19.06
2023-05-10T13:45:19.426Z,18.46
2023-05-10T13:47:46.873Z,18.21
2023-05-10T13:50:15.698Z,18.33
2023-05-10T13:52:43.066Z,18.54
2023-05-10T13:55:10.330Z,18.52
2023-05-10T13:57:37.701Z,18.57
2023-05-10T14:00:06.330Z,18.42
2023-05-10T14:02:33.775Z,18.49
2023-05-10T14:05:01.129Z,18.71
2023-05-10T14:07:29.786Z,18.79
2023-05-10T14:09:57.186Z,19.07
2023-05-10T14:12:24.429Z,19.24
2023-05-10T14:14:51.735Z,19.02
2023-05-10T14:17:19.003Z,19.49
2023-05-10T14:19:46.309Z,19.61
2023-05-10T14:22:13.800Z,19.39
2023-05-10T14:24:42.411Z,19.48
2023-05-10T14:27:09.677Z,19.41
2023-05-10T14:29:37.151Z,19.15
2023-05-10T14:32:04.552Z,19.16
2023-05-10T14:34:31.825Z,18.99
2023-05-10T14:36:59.119Z,19.17
2023-05-10T14:39:26.385Z,19.37
2023-05-10T14:41:55.064Z,19.50
2023-05-10T14:44:22.295Z,19.56
2023-05-10T14:46:49.597Z,20.16
2023-05-10T14:49:16.853Z,20.72
2023-05-10T14:51:44.097Z,20.76
2023-05-10T14:54:11.379Z,20.39
2023-05-10T14:56:38.633Z,19.82
2023-05-10T14:59:07.249Z,19.80
2023-05-10T15:01:35.366Z,19.20
2023-05-10T15:04:03.250Z,19.00
2023-05-10T15:06:34.620Z,19.07
2023-05-10T15:09:03.264Z,19.12
2023-05-10T15:11:30.543Z,19.37
2023-05-10T15:13:57.833Z,19.53
2023-05-10T15:16:26.678Z,19.63
2023-05-10T15:18:54.146Z,19.72
2023-05-10T15:21:21.428Z,19.46
2023-05-10T15:23:48.665Z,19.16
2023-05-10T15:26:15.936Z,18.62
2023-05-10T15:28:43.182Z,18.45
2023-05-10T15:31:10.427Z,18.17
2023-05-10T15:33:39.544Z,18.13
2023-05-10T15:36:07.110Z,18.07
2023-05-10T15:38:34.379Z,18.15
2023-05-10T15:41:01.713Z,18.59
2023-05-10T15:43:29.191Z,19.05
2023-05-10T15:45:56.458Z,19.43
2023-05-10T15:48:23.868Z,19.18
2023-05-10T15:50:52.503Z,19.10
2023-05-10T15:53:19.851Z,18.80
2023-05-10T15:55:47.176Z,18.88
2023-05-10T15:58:14.504Z,19.07
2023-05-10T16:00:41.946Z,19.28
2023-05-10T16:03:09.455Z,19.24
2023-05-10T16:05:36.819Z,18.99
2023-05-10T16:08:05.775Z,18.96
2023-05-10T16:10:33.233Z,19.43
2023-05-10T16:13:00.678Z,19.59
2023-05-10T16:15:28.200Z,19.43
2023-05-10T16:17:55.667Z,18.68
2023-05-10T16:20:23.016Z,18.76
2023-05-10T16:22:50.712Z,19.00
2023-05-10T16:25:19.762Z,18.83
2023-05-10T16:27:47.432Z,18.95
2023-05-10T16:30:14.857Z,19.06
2023-05-10T16:32:42.141Z,18.93
2023-05-10T16:35:09.898Z,19.03
2023-05-10T16:37:37.444Z,19.12
2023-05-10T16:40:06.130Z,19.02
2023-05-10T16:42:35.011Z,19.09
2023-05-10T16:45:02.464Z,18.99
2023-05-10T16:47:29.780Z,18.87
2023-05-10T16:49:57.086Z,18.88
2023-05-10T16:52:24.455Z,18.78
2023-05-10T16:54:51.793Z,18.58
2023-05-10T16:57:19.063Z,18.62
2023-05-10T16:59:47.964Z,18.61
2023-05-10T17:02:15.548Z,18.19
2023-05-10T17:04:42.992Z,17.93
2023-05-10T17:07:10.639Z,17.91
2023-05-10T17:09:38.136Z,18.16
2023-05-10T17:12:05.833Z,17.77
2023-05-10T17:14:33.143Z,17.61
2023-05-10T17:17:02.118Z,17.79
2023-05-10T17:19:30.254Z,17.41
2023-05-10T17:21:57.601Z,17.44
2023-05-10T17:24:25.218Z,17.19
2023-05-10T17:26:53.752Z,17.15
2023-05-10T17:29:22.760Z,17.17
2023-05-10T17:31:52.731Z,17.09
2023-05-10T17:34:23.535Z,17.46
2023-05-10T17:36:50.883Z,17.61
2023-05-10T17:39:18.192Z,17.57
2023-05-10T17:42:04.058Z,17.48
2023-05-10T17:44:51.684Z,17.18
2023-05-10T17:47:39.322Z,17.27
2023-05-10T17:50:28.325Z,17.23
2023-05-10T17:53:15.984Z,17.45
2023-05-10T17:56:03.698Z,17.00
2023-05-10T17:58:51.316Z,16.93
2023-05-10T18:01:38.991Z,17.10
2023-05-10T18:04:26.717Z,17.11
2023-05-10T18:07:15.696Z,17.09
2023-05-10T18:10:03.394Z,16.90
2023-05-10T18:12:50.986Z,16.89
2023-05-10T18:15:41.768Z,16.63
2023-05-10T18:18:29.372Z,16.65
2023-05-10T18:21:17.478Z,16.45
2023-05-10T18:24:06.712Z,16.27
2023-05-10T18:26:54.410Z,16.51
2023-05-10T18:29:42.024Z,16.48
2023-05-10T18:32:29.667Z,16.33
2023-05-10T18:35:17.322Z,16.18
2023-05-10T18:38:04.928Z,16.17
2023-05-10T18:40:53.902Z,16.32
2023-05-10T18:43:41.557Z,16.25
2023-05-10T18:46:29.121Z,16.30
2023-05-10T18:49:16.785Z,16.35
2023-05-10T18:52:04.566Z,16.43
2023-05-10T18:54:52.260Z,16.41
2023-05-10T18:57:41.295Z,16.37
2023-05-10T19:00:29.130Z,16.45
2023-05-10T19:03:16.710Z,16.46
2023-05-10T19:06:04.360Z,16.35
2023-05-10T19:08:52.307Z,16.15
2023-05-10T19:11:41.065Z,15.85
2023-05-10T19:14:30.035Z,16.02
2023-05-10T19:17:17.690Z,16.05
2023-05-10T19:20:06.246Z,16.12
2023-05-10T19:23:09.015Z,16.19
2023-05-10T19:25:59.159Z,16.19
2023-05-10T19:28:46.733Z,16.25
2023-05-10T19:31:35.933Z,16.08
2023-05-10T19:34:23.926Z,15.89
2023-05-10T19:37:11.634Z,15.75
2023-05-10T19:39:59.283Z,15.80
2023-05-10T19:42:47.025Z,15.71
2023-05-10T19:45:35.065Z,15.62
2023-05-10T19:48:24.143Z,15.35
2023-05-10T19:51:12.404Z,15.51
2023-05-10T19:54:00.240Z,15.38
2023-05-10T19:56:47.850Z,15.38
2023-05-10T19:59:35.427Z,15.42
2023-05-10T20:02:23.128Z,15.16
2023-05-10T20:05:12.208Z,15.11
2023-05-10T20:07:59.827Z,15.05
2023-05-10T20:10:47.439Z,15.02
2023-05-10T20:13:35.030Z,15.09
2023-05-10T20:16:25.069Z,15.21
2023-05-10T20:19:14.339Z,15.26
2023-05-10T20:22:03.376Z,15.04
2023-05-10T20:24:51.489Z,14.96
2023-05-10T20:27:39.192Z,14.88
2023-05-10T20:30:26.923Z,15.16
2023-05-10T20:33:14.505Z,14.99
2023-05-10T20:36:02.065Z,15.15
2023-05-10T20:38:51.185Z,15.11
2023-05-10T20:41:38.734Z,15.11
2023-05-10T20:44:26.328Z,15.20
2023-05-10T20:47:14.900Z,15.20
2023-05-10T20:50:02.536Z,15.27
2023-05-10T20:52:50.150Z,15.30
2023-05-10T20:55:39.073Z,15.25
2023-05-10T20:58:26.934Z,15.12
2023-05-10T21:01:14.616Z,15.00
2023-05-10T21:04:02.661Z,15.11
2023-05-10T21:06:50.250Z,14.98
2023-05-10T21:09:38.221Z,14.76
2023-05-10T21:12:27.265Z,14.63
2023-05-10T21:15:14.898Z,14.65
2023-05-10T21:18:02.611Z,14.51
2023-05-10T21:20:50.300Z,14.35
2023-05-10T21:23:37.894Z,14.22
2023-05-10T21:26:25.500Z,14.05
2023-05-10T21:29:14.856Z,14.23
2023-05-10T21:32:02.608Z,14.21
2023-05-10T21:34:50.324Z,14.26
2023-05-10T21:37:37.945Z,14.05
2023-05-10T21:40:25.553Z,14.23
2023-05-10T21:43:13.176Z,14.18
2023-05-10T21:46:02.191Z,14.22
2023-05-10T21:48:49.883Z,14.43
2023-05-10T21:51:37.481Z,14.32
2023-05-10T21:54:25.154Z,14.27
2023-05-10T21:57:12.731Z,14.16
2023-05-10T22:00:00.384Z,14.03
2023-05-10T22:02:49.529Z,14.17
2023-05-10T22:05:37.221Z,14.25
2023-05-10T22:08:24.804Z,14.27
2023-05-10T22:11:12.540Z,14.40
2023-05-10T22:14:00.153Z,14.33
2023-05-10T22:16:47.837Z,14.25
2023-05-10T22:19:36.781Z,14.08
2023-05-10T22:22:24.391Z,14.09
2023-05-10T22:25:12.037Z,14.05
2023-05-10T22:27:59.605Z,14.04
2023-05-10T22:30:47.518Z,13.96
2023-05-10T22:33:35.196Z,13.94
2023-05-10T22:36:24.109Z,13.98
2023-05-10T22:39:11.733Z,13.94
2023-05-10T22:41:59.303Z,13.98
2023-05-10T22:44:46.970Z,13.77
2023-05-10T22:47:34.675Z,13.85
2023-05-10T22:50:22.351Z,13.60
